Time;durP1;ratioP1;P1;durP2;ratioP2;P2;SDS_P1;SDS_P2;PMS_P1;PMS_P2;Temp;Humidity;BMP_temperature;BMP_pressure;BME280_temperature;BME280_humidity;BME280_pressure;Samples;Min_cycle;Max_cycle;Signal;HPM_P1;HPM_P2
2022/02/15 00:02:17;;;;;;;6.35;1.50;;;;;;;15.58;41.76;100453.47;5034646;28;20025;-62
2022/02/15 00:04:43;;;;;;;2.67;1.15;;;;;;;15.63;41.61;100458.41;5016823;28;20479;-63
2022/02/15 00:07:08;;;;;;;4.55;0.73;;;;;;;15.64;42.25;100452.81;5016769;28;20056;-63
2022/02/15 00:09:33;;;;;;;2.47;1.00;;;;;;;15.64;41.56;100460.91;5034339;28;20478;-63
2022/02/15 00:11:59;;;;;;;2.90;1.08;;;;;;;15.65;41.59;100461.75;5034173;28;20021;-63
2022/02/15 00:14:24;;;;;;;4.28;1.25;;;;;;;15.63;42.02;100472.72;5034492;28;20026;-63
2022/02/15 00:16:50;;;;;;;1.95;1.17;;;;;;;15.65;42.29;100467.16;5034498;28;20503;-63
2022/02/15 00:19:17;;;;;;;5.18;1.00;;;;;;;15.62;41.97;100473.75;5034357;28;20017;-63
2022/02/15 00:21:43;;;;;;;2.10;0.90;;;;;;;15.61;41.44;100466.66;5034377;28;20025;-63
2022/02/15 00:24:08;;;;;;;2.92;1.30;;;;;;;15.61;42.85;100472.03;5033907;28;20056;-63
2022/02/15 00:26:34;;;;;;;2.50;1.15;;;;;;;15.57;42.62;100470.72;5034074;28;20029;-63
2022/02/15 00:29:01;;;;;;;4.40;1.35;;;;;;;15.55;42.75;100471.91;5016145;28;20053;-63
2022/02/15 00:31:27;;;;;;;11.10;1.48;;;;;;;15.53;42.87;100473.91;5016306;28;20030;-63
2022/02/15 00:33:53;;;;;;;3.80;1.27;;;;;;;15.53;41.89;100473.91;5033956;28;20036;-63
2022/02/15 00:36:18;;;;;;;5.53;1.23;;;;;;;15.54;41.61;100481.00;5016813;28;20079;-63
2022/02/15 00:38:44;;;;;;;6.50;1.30;;;;;;;15.53;42.14;100484.69;5034326;28;20434;-63
2022/02/15 00:41:09;;;;;;;6.30;1.38;;;;;;;15.50;41.69;100495.84;5033920;28;20025;-63
2022/02/15 00:43:34;;;;;;;4.10;1.48;;;;;;;15.48;42.93;100487.94;5034027;28;20479;-63
2022/02/15 00:46:00;;;;;;;5.25;1.15;;;;;;;15.48;41.69;100493.31;5016222;28;20033;-63
2022/02/15 00:48:27;;;;;;;7.85;1.48;;;;;;;15.48;43.25;100497.88;5033886;28;20415;-63
2022/02/15 00:50:52;;;;;;;3.85;1.52;;;;;;;15.46;42.36;100499.88;5016080;28;20091;-63
2022/02/15 00:53:17;;;;;;;5.85;1.02;;;;;;;15.46;43.22;100511.56;5033684;28;20084;-62
2022/02/15 00:55:43;;;;;;;4.43;1.48;;;;;;;15.43;42.95;100511.84;5035153;28;20029;-63
2022/02/15 00:58:08;;;;;;;7.25;1.70;;;;;;;15.44;41.48;100515.38;5020223;28;20029;-63
2022/02/15 01:00:33;;;;;;;3.05;1.00;;;;;;;15.40;41.98;100506.78;5037930;28;20096;-62
2022/02/15 01:02:59;;;;;;;1.40;0.98;;;;;;;15.38;41.68;100513.38;5020182;28;20060;-63
2022/02/15 01:05:24;;;;;;;7.07;1.48;;;;;;;15.33;42.58;100516.56;5037843;28;20137;-63
2022/02/15 01:07:50;;;;;;;4.88;1.60;;;;;;;15.32;41.95;100516.72;5037959;28;20062;-63
2022/02/15 01:10:16;;;;;;;2.80;1.20;;;;;;;15.31;41.91;100518.59;5037742;28;20084;-63
2022/02/15 01:12:41;;;;;;;7.25;1.52;;;;;;;15.31;42.91;100513.19;5037631;28;20025;-63
2022/02/15 01:15:07;;;;;;;6.82;1.67;;;;;;;15.29;43.06;100514.38;5020058;28;20486;-63
2022/02/15 01:17:33;;;;;;;4.50;1.70;;;;;;;15.28;43.15;100534.25;5037666;28;20540;-63
2022/02/15 01:19:58;;;;;;;5.75;1.10;;;;;;;15.27;42.51;100532.59;5037321;28;20022;-63
2022/02/15 01:22:23;;;;;;;2.70;1.17;;;;;;;15.23;42.14;100529.38;5037253;28;20056;-62
2022/02/15 01:24:49;;;;;;;2.47;1.00;;;;;;;15.24;42.44;100532.91;5037282;28;20037;-63
2022/02/15 01:27:14;;;;;;;2.53;1.38;;;;;;;15.24;42.42;100539.16;5037349;28;20044;-63
2022/02/15 01:29:39;;;;;;;3.40;1.17;;;;;;;15.18;42.00;100536.28;5037658;28;20033;-63
2022/02/15 01:32:06;;;;;;;3.40;0.80;;;;;;;15.18;42.01;100537.13;5037486;28;20029;-62
2022/02/15 01:34:31;;;;;;;4.28;1.77;;;;;;;15.20;43.25;100543.19;5037105;28;20597;-63
2022/02/15 01:36:56;;;;;;;1.58;1.15;;;;;;;15.21;42.65;100546.75;5037177;28;20053;-62
2022/02/15 01:39:22;;;;;;;2.33;1.05;;;;;;;15.22;42.44;100551.94;5037226;28;20057;-63
2022/02/15 01:41:48;;;;;;;6.32;1.13;;;;;;;15.22;43.10;100557.34;5037471;28;20032;-62
2022/02/15 01:44:16;;;;;;;1.30;1.00;;;;;;;15.24;42.30;100559.91;5037126;28;20018;-63
2022/02/15 01:46:42;;;;;;;5.07;1.58;;;;;;;15.25;42.98;100558.88;5036880;28;20479;-63
2022/02/15 01:49:07;;;;;;;7.90;2.28;;;;;;;15.24;43.03;100563.44;5036686;28;20046;-63
2022/02/15 01:51:33;;;;;;;3.65;1.20;;;;;;;15.22;43.01;100551.94;5036886;28;20506;-63
2022/02/15 01:53:58;;;;;;;4.10;1.15;;;;;;;15.26;43.38;100564.13;5019360;28;20483;-63
2022/02/15 01:56:24;;;;;;;2.60;1.33;;;;;;;15.27;43.30;100565.78;5018870;28;20386;-63
2022/02/15 01:58:49;;;;;;;2.55;1.10;;;;;;;15.27;42.25;100565.78;5019143;28;20029;-63
2022/02/15 02:01:15;;;;;;;1.85;0.80;;;;;;;15.26;42.05;100566.81;5036805;28;20033;-63
2022/02/15 02:03:40;;;;;;;2.22;1.15;;;;;;;15.26;43.64;100561.41;5036613;28;20022;-63
2022/02/15 02:06:06;;;;;;;2.05;1.08;;;;;;;15.23;42.22;100564.44;5036517;28;20025;-63
2022/02/15 02:08:33;;;;;;;3.05;0.93;;;;;;;15.23;42.97;100559.06;5035626;28;20101;-63
2022/02/15 02:11:00;;;;;;;2.97;1.15;;;;;;;15.25;42.38;100569.66;5036641;28;20091;-63
2022/02/15 02:13:26;;;;;;;5.88;1.20;;;;;;;15.23;43.89;100569.84;5018989;28;20030;-63
2022/02/15 02:15:52;;;;;;;2.00;1.40;;;;;;;15.23;43.33;100569.84;5018624;28;20030;-63
2022/02/15 02:18:17;;;;;;;2.28;1.13;;;;;;;15.21;42.25;100571.88;5018663;28;20060;-63
2022/02/15 02:20:43;;;;;;;3.20;1.00;;;;;;;15.23;43.14;100571.69;5036518;28;20031;-63
2022/02/15 02:23:12;;;;;;;15.13;1.73;;;;;;;15.20;42.72;100575.56;5036467;28;20018;-63
2022/02/15 02:25:37;;;;;;;8.98;1.42;;;;;;;15.20;43.40;100583.66;5036254;28;20040;-62
2022/02/15 02:28:03;;;;;;;4.35;1.80;;;;;;;15.19;42.52;100595.44;5036276;28;20017;-63
2022/02/15 02:30:29;;;;;;;2.53;0.98;;;;;;;15.18;42.56;100585.69;5035955;28;20048;-62
2022/02/15 02:32:54;;;;;;;8.45;1.50;;;;;;;15.16;43.49;100579.59;5018456;28;20067;-63
2022/02/15 02:35:20;;;;;;;2.50;1.38;;;;;;;15.18;43.27;100588.38;5018546;28;20045;-63
2022/02/15 02:37:46;;;;;;;5.68;1.20;;;;;;;15.16;42.85;100590.38;5035982;28;20025;-62
2022/02/15 02:40:12;;;;;;;4.88;1.75;;;;;;;15.12;43.50;100594.44;5035716;28;20387;-63
2022/02/15 02:42:39;;;;;;;3.28;1.40;;;;;;;15.10;42.66;100593.78;5035938;28;20151;-62
2022/02/15 02:45:24;;;;;;;2.35;1.40;;;;;;;15.09;43.22;100594.75;5018260;28;20028;-63
2022/02/15 02:47:53;;;;;;;2.80;1.50;;;;;;;15.09;42.74;100597.47;5034908;28;20060;-64
2022/02/15 02:50:20;;;;;;;2.38;1.63;;;;;;;15.09;43.04;100605.56;5017709;28;20176;-64
2022/02/15 02:52:45;;;;;;;5.45;2.47;;;;;;;15.08;42.72;100609.25;5035436;28;20033;-64
2022/02/15 02:55:11;;;;;;;4.65;1.48;;;;;;;15.07;42.69;100607.59;5035528;28;20056;-65
2022/02/15 02:57:37;;;;;;;5.00;1.58;;;;;;;15.05;43.57;100604.19;5035706;28;20059;-65
2022/02/15 03:00:08;;;;;;;5.65;1.80;;;;;;;15.04;43.59;100605.22;5035393;28;20021;-65
2022/02/15 03:02:34;;;;;;;1.95;1.63;;;;;;;15.02;42.60;100604.50;5017437;28;20479;-64
2022/02/15 03:04:59;;;;;;;3.95;1.70;;;;;;;14.99;43.35;100611.06;5035594;28;20045;-64
2022/02/15 03:07:25;;;;;;;2.50;1.63;;;;;;;14.96;43.98;100615.97;5035317;28;20036;-65
2022/02/15 03:09:50;;;;;;;4.97;2.08;;;;;;;14.94;44.10;100609.88;5035410;28;20438;-64
2022/02/15 03:12:16;;;;;;;5.97;2.15;;;;;;;14.90;44.06;100612.06;5035170;28;20545;-63
2022/02/15 03:14:42;;;;;;;3.65;1.98;;;;;;;14.94;42.69;100617.97;5017616;28;20104;-63
2022/02/15 03:17:08;;;;;;;2.67;1.52;;;;;;;14.91;43.39;100620.97;5035321;28;20468;-63
2022/02/15 03:19:33;;;;;;;7.88;1.52;;;;;;;14.91;43.64;100624.53;5034846;28;20053;-63
2022/02/15 03:21:59;;;;;;;5.43;1.10;;;;;;;14.90;43.83;100622.00;5036086;28;20026;-65
2022/02/15 03:24:25;;;;;;;3.55;2.25;;;;;;;14.88;44.41;100630.25;5034730;28;20041;-63
2022/02/15 03:26:51;;;;;;;5.57;1.58;;;;;;;14.85;42.93;100629.75;5017297;28;20041;-62
2022/02/15 03:29:16;;;;;;;4.10;1.58;;;;;;;14.81;43.76;100628.38;5017253;28;20025;-63
2022/02/15 03:31:42;;;;;;;2.80;1.42;;;;;;;14.75;43.92;100634.41;5017250;28;20101;-63
2022/02/15 03:34:08;;;;;;;2.65;1.30;;;;;;;14.69;44.44;100629.63;5016923;28;20022;-63
2022/02/15 03:36:33;;;;;;;4.53;2.08;;;;;;;14.65;44.30;100634.53;5016999;28;20021;-63
2022/02/15 03:38:59;;;;;;;2.97;1.75;;;;;;;14.67;42.99;100647.84;5017055;28;20494;-62
2022/02/15 03:44:08;;;;;;;1.98;1.10;;;;;;;14.65;44.72;100656.09;5034438;28;20056;-63
2022/02/15 03:46:34;;;;;;;4.32;1.70;;;;;;;14.65;43.30;100649.84;5034646;28;20033;-63
2022/02/15 03:48:59;;;;;;;3.42;1.48;;;;;;;14.62;44.41;100644.78;5034380;28;20049;-63
2022/02/15 03:51:25;;;;;;;3.22;1.55;;;;;;;14.64;44.55;100653.53;5034508;28;20033;-63
2022/02/15 03:53:50;;;;;;;7.75;1.80;;;;;;;14.61;43.28;100653.84;5034370;28;20052;-63
2022/02/15 03:56:16;;;;;;;5.28;1.88;;;;;;;14.64;44.79;100658.94;5034530;28;20104;-63
2022/02/15 03:58:41;;;;;;;4.38;1.63;;;;;;;14.66;43.15;100673.09;5016683;28;20032;-63
2022/02/15 04:01:07;;;;;;;4.85;1.63;;;;;;;14.65;43.86;100666.88;5034601;28;20029;-63
2022/02/15 04:03:32;;;;;;;2.08;1.58;;;;;;;14.67;43.50;100678.34;5034104;28;20100;-63
2022/02/15 04:05:58;;;;;;;3.08;1.38;;;;;;;14.65;43.51;100676.81;5016705;28;20022;-63
2022/02/15 04:08:23;;;;;;;4.38;1.60;;;;;;;14.69;44.75;100691.66;5034365;28;20075;-63
2022/02/15 04:10:49;;;;;;;5.45;2.05;;;;;;;14.67;43.50;100690.97;5034302;28;20509;-63
2022/02/15 04:13:15;;;;;;;5.07;2.03;;;;;;;14.65;44.88;100703.78;5034319;28;20033;-63
2022/02/15 04:15:40;;;;;;;5.10;1.40;;;;;;;14.62;45.08;100704.94;5034158;28;20021;-63
2022/02/15 04:18:06;;;;;;;5.47;2.08;;;;;;;14.58;45.13;100704.41;5034066;28;20112;-63
2022/02/15 04:20:31;;;;;;;4.72;1.80;;;;;;;14.60;43.68;100714.19;5033791;28;20026;-63
2022/02/15 04:22:56;;;;;;;3.30;1.90;;;;;;;14.61;43.80;100713.16;5016246;28;20024;-62
2022/02/15 04:25:22;;;;;;;5.72;2.25;;;;;;;14.63;44.95;100716.56;5034216;28;20483;-63
2022/02/15 04:27:47;;;;;;;3.65;2.03;;;;;;;14.64;44.81;100718.25;5033792;28;20368;-62
2022/02/15 04:30:13;;;;;;;2.17;1.65;;;;;;;14.64;45.16;100721.78;5033447;28;20406;-63
2022/02/15 04:32:38;;;;;;;3.53;2.75;;;;;;;14.66;44.06;100732.41;5016242;28;20040;-62
2022/02/15 04:35:04;;;;;;;4.28;2.40;;;;;;;14.67;45.22;100728.72;5016194;28;20387;-63
2022/02/15 04:37:29;;;;;;;4.90;2.63;;;;;;;14.68;44.29;100736.66;5016027;28;20025;-63
2022/02/15 04:39:54;;;;;;;4.75;1.83;;;;;;;14.69;45.30;100740.19;5033912;28;20029;-63
2022/02/15 04:42:20;;;;;;;6.05;1.70;;;;;;;14.69;43.96;100737.47;5033725;28;20025;-63
2022/02/15 04:44:45;;;;;;;3.00;1.77;;;;;;;14.69;44.06;100742.88;5015866;28;20083;-63
2022/02/15 04:47:10;;;;;;;2.67;1.80;;;;;;;14.67;43.94;100744.88;5033830;28;20032;-63
2022/02/15 04:49:36;;;;;;;4.85;1.75;;;;;;;14.63;44.25;100746.22;5033624;28;20053;-63
2022/02/15 04:52:01;;;;;;;6.68;2.15;;;;;;;14.56;45.15;100738.75;5016144;28;20473;-63
2022/02/15 04:54:27;;;;;;;5.05;2.55;;;;;;;14.57;44.11;100745.00;5015728;28;20075;-63
2022/02/15 04:56:52;;;;;;;6.57;2.78;;;;;;;14.55;45.45;100755.94;5033724;28;20021;-63
2022/02/15 04:59:19;;;;;;;3.55;1.83;;;;;;;14.54;44.19;100751.53;5033489;28;20022;-63
2022/02/15 05:01:44;;;;;;;6.28;2.42;;;;;;;14.53;45.68;100760.63;5033697;28;20139;-63
2022/02/15 05:04:48;;;;;;;4.45;2.00;;;;;;;14.53;45.76;100765.19;5033038;28;20105;-62
2022/02/15 05:06:55;;;;;;;11.43;3.88;;;;;;;14.53;44.84;100773.25;5033444;28;20046;-63
2022/02/15 05:09:21;;;;;;;5.18;3.08;;;;;;;14.53;44.88;100766.03;5033402;28;20064;-63
2022/02/15 05:11:46;;;;;;;4.88;2.65;;;;;;;14.54;45.90;100772.28;5015907;28;20490;-63
2022/02/15 05:14:11;;;;;;;5.30;2.60;;;;;;;14.48;45.54;100762.97;5033389;28;20102;-63
2022/02/15 05:16:37;;;;;;;6.45;2.83;;;;;;;14.48;45.41;100760.25;5015757;28;20033;-63
2022/02/15 05:19:02;;;;;;;8.43;3.25;;;;;;;14.52;44.47;100764.31;5033378;28;20029;-63
2022/02/15 05:21:27;;;;;;;6.35;3.35;;;;;;;14.50;45.19;100760.94;5033509;28;20526;-63
2022/02/15 05:23:53;;;;;;;9.55;3.15;;;;;;;14.49;44.56;100756.53;5033320;28;20029;-63
2022/02/15 05:26:18;;;;;;;8.20;3.72;;;;;;;14.51;45.51;100762.66;5033126;28;20064;-62
2022/02/15 05:28:43;;;;;;;9.75;3.88;;;;;;;14.54;45.90;100762.31;5033395;28;20087;-63
2022/02/15 05:31:09;;;;;;;10.88;3.70;;;;;;;14.54;44.60;100762.31;5033162;28;20040;-63
2022/02/15 05:33:34;;;;;;;13.68;4.03;;;;;;;14.54;45.59;100767.69;5033426;28;20471;-63
2022/02/15 05:36:00;;;;;;;7.97;4.30;;;;;;;14.55;45.59;100766.72;5033434;28;20124;-63
2022/02/15 05:38:25;;;;;;;7.65;3.95;;;;;;;14.55;45.80;100773.94;5015938;28;20371;-62
2022/02/15 05:40:50;;;;;;;8.77;3.80;;;;;;;14.55;45.89;100771.25;5033684;28;20029;-63
2022/02/15 05:43:16;;;;;;;7.90;3.83;;;;;;;14.56;45.06;100775.66;5019461;28;20026;-63
2022/02/15 05:45:41;;;;;;;5.93;3.58;;;;;;;14.56;44.71;100776.50;5019498;28;20074;-63
2022/02/15 05:48:06;;;;;;;10.23;4.85;;;;;;;14.56;45.93;100771.13;5036868;28;20025;-63
2022/02/15 05:50:50;;;;;;;9.88;3.90;;;;;;;14.57;45.62;100774.66;5036273;28;20128;-63
2022/02/15 05:53:22;;;;;;;9.98;4.35;;;;;;;14.56;46.06;100779.19;5036613;28;20076;-62
2022/02/15 05:55:48;;;;;;;11.85;4.18;;;;;;;14.56;44.85;100772.94;5036598;28;20052;-62
2022/02/15 05:58:15;;;;;;;10.73;4.03;;;;;;;14.55;45.81;100780.19;5036781;28;20121;-62
2022/02/15 06:00:40;;;;;;;8.95;4.03;;;;;;;14.58;45.97;100785.28;5036704;28;20025;-63
2022/02/15 06:04:09;;;;;;;8.27;4.35;;;;;;;14.60;45.21;100786.97;5036738;28;20080;-63
2022/02/15 06:05:51;;;;;;;12.95;4.15;;;;;;;14.60;45.16;100785.09;5036220;28;20033;-63
2022/02/15 06:08:16;;;;;;;9.55;4.68;;;;;;;14.58;45.01;100779.88;5036316;28;20128;-62
2022/02/15 06:10:43;;;;;;;9.15;5.35;;;;;;;14.63;45.63;100786.66;5036203;28;20079;-63
2022/02/15 06:13:09;;;;;;;11.20;5.88;;;;;;;14.65;45.33;100790.91;5036144;28;20013;-63
2022/02/15 06:15:34;;;;;;;9.05;4.53;;;;;;;14.64;45.19;100797.28;5018394;28;20368;-63
2022/02/15 06:17:59;;;;;;;10.48;5.30;;;;;;;14.67;46.21;100804.19;5018151;28;20028;-63
2022/02/15 06:20:25;;;;;;;10.43;3.90;;;;;;;14.64;45.46;100808.06;5018700;28;20074;-63
2022/02/15 06:22:50;;;;;;;12.15;4.85;;;;;;;14.66;44.97;100808.75;5035920;28;20053;-63
2022/02/15 06:25:15;;;;;;;11.95;4.78;;;;;;;14.66;45.80;100814.13;5036002;28;20036;-63
2022/02/15 06:27:41;;;;;;;10.45;4.22;;;;;;;14.65;46.33;100806.22;5035833;28;20040;-63
2022/02/15 06:30:07;;;;;;;11.20;4.97;;;;;;;14.67;46.40;100815.00;5035818;28;20036;-63
2022/02/15 06:32:32;;;;;;;9.65;4.45;;;;;;;14.65;45.88;100811.63;5036077;28;20036;-63
2022/02/15 06:34:58;;;;;;;10.77;5.38;;;;;;;14.67;45.42;100820.38;5035765;28;20025;-63
2022/02/15 06:37:23;;;;;;;8.77;4.80;;;;;;;14.67;45.44;100817.69;5018033;28;20490;-63
2022/02/15 06:39:48;;;;;;;17.63;5.05;;;;;;;14.68;45.21;100822.09;5035513;28;20558;-63
2022/02/15 06:42:14;;;;;;;13.07;5.55;;;;;;;14.68;46.48;100827.47;5035728;28;20026;-63
2022/02/15 06:44:39;;;;;;;9.35;5.07;;;;;;;14.67;45.66;100831.16;5035477;28;20021;-63
2022/02/15 06:47:05;;;;;;;11.50;5.40;;;;;;;14.65;46.79;100838.56;5035623;28;20142;-63
2022/02/15 06:49:30;;;;;;;12.57;4.85;;;;;;;14.64;46.72;100834.16;5017785;28;20052;-63
2022/02/15 06:51:56;;;;;;;10.70;5.13;;;;;;;14.64;45.25;100839.56;5035503;28;20037;-65
2022/02/15 06:54:21;;;;;;;7.25;4.20;;;;;;;14.63;45.63;100832.50;5034558;28;20029;-65
2022/02/15 06:56:47;;;;;;;8.98;4.30;;;;;;;14.57;46.68;100837.47;5035324;28;20021;-65
2022/02/15 06:59:13;;;;;;;11.65;5.00;;;;;;;14.61;46.07;100842.56;5035226;28;20391;-64
2022/02/15 07:01:40;;;;;;;13.82;5.10;;;;;;;14.61;45.35;100854.19;5017529;28;20091;-64
2022/02/15 07:04:05;;;;;;;11.38;5.38;;;;;;;14.61;46.56;100853.34;5034925;28;20037;-64
2022/02/15 07:06:31;;;;;;;9.60;4.85;;;;;;;14.61;46.55;100858.75;5035245;28;20503;-65
2022/02/15 07:08:56;;;;;;;11.43;4.88;;;;;;;14.58;46.41;100855.34;5035181;28;20038;-65
2022/02/15 07:11:22;;;;;;;24.42;5.68;;;;;;;14.56;45.20;100868.16;5016945;28;20033;-65
2022/02/15 07:13:50;;;;;;;11.77;5.20;;;;;;;14.55;46.48;100870.97;5034916;28;20376;-65
2022/02/15 07:16:16;;;;;;;10.25;4.78;;;;;;;14.55;46.16;100881.78;5034929;28;20041;-64
2022/02/15 07:18:43;;;;;;;10.20;4.30;;;;;;;14.53;46.92;100873.00;5017197;28;20026;-65
2022/02/15 07:21:08;;;;;;;8.98;4.25;;;;;;;14.54;46.70;100880.09;5034906;28;20034;-65
2022/02/15 07:23:34;;;;;;;7.30;4.47;;;;;;;14.62;45.90;100890.09;5017273;28;20029;-65
2022/02/15 07:25:59;;;;;;;10.35;4.05;;;;;;;14.66;46.56;100896.88;5035264;28;20069;-63
2022/02/15 07:28:24;;;;;;;10.45;4.03;;;;;;;14.67;46.30;100891.34;5035075;28;20079;-63
2022/02/15 07:30:50;;;;;;;12.40;4.28;;;;;;;14.66;45.43;100883.38;5034683;28;20104;-63
2022/02/15 07:33:15;;;;;;;9.63;4.32;;;;;;;14.65;45.90;100884.41;5034573;28;20029;-63
2022/02/15 07:35:40;;;;;;;8.45;3.60;;;;;;;14.58;45.66;100876.94;5034842;28;20036;-63
2022/02/15 07:38:06;;;;;;;7.68;3.53;;;;;;;14.75;46.78;100904.03;5034773;28;20100;-63
2022/02/15 07:40:31;;;;;;;9.45;3.80;;;;;;;14.77;46.52;100908.28;5034658;28;20021;-63
2022/02/15 07:42:57;;;;;;;8.65;4.30;;;;;;;14.80;44.98;100907.13;5034956;28;20049;-63
2022/02/15 07:45:22;;;;;;;5.85;3.40;;;;;;;14.83;45.94;100912.19;5034856;28;20442;-63
2022/02/15 07:47:49;;;;;;;4.38;3.20;;;;;;;14.83;45.21;100910.34;5034842;28;20031;-63
2022/02/15 07:50:15;;;;;;;7.90;3.70;;;;;;;14.89;45.61;100920.53;5034568;28;20113;-63
2022/02/15 07:52:41;;;;;;;11.38;3.10;;;;;;;14.84;45.63;100917.47;5017215;28;20071;-63
2022/02/15 07:55:07;;;;;;;5.75;3.08;;;;;;;14.87;45.43;100919.00;5034432;28;20021;-63
2022/02/15 07:57:32;;;;;;;5.72;3.15;;;;;;;14.88;45.65;100918.00;5034672;28;20073;-63
2022/02/15 07:59:58;;;;;;;4.63;2.72;;;;;;;14.91;45.48;100931.16;5034293;28;20033;-63
2022/02/15 08:02:23;;;;;;;6.70;3.63;;;;;;;14.89;46.33;100935.84;5016464;28;20032;-63
2022/02/15 08:04:48;;;;;;;10.50;4.00;;;;;;;14.84;45.21;100940.88;5033548;28;20021;-63
2022/02/15 08:07:14;;;;;;;8.80;3.08;;;;;;;14.87;46.26;100937.88;5033928;28;20025;-63
2022/02/15 08:09:39;;;;;;;8.15;3.53;;;;;;;14.87;44.94;100956.75;5033918;28;20029;-63
2022/02/15 08:12:09;;;;;;;8.23;3.60;;;;;;;14.88;45.08;100955.75;5033927;28;20029;-63
2022/02/15 08:14:37;;;;;;;7.65;3.38;;;;;;;14.84;45.65;100949.81;5034000;28;20029;-63
2022/02/15 08:17:03;;;;;;;7.78;3.90;;;;;;;14.87;46.63;100951.34;5033750;28;20395;-63
2022/02/15 08:19:28;;;;;;;8.50;3.70;;;;;;;14.87;46.30;100957.59;5034141;28;20028;-63
2022/02/15 08:21:56;;;;;;;12.57;4.55;;;;;;;14.85;45.14;100964.16;5034000;28;20036;-62
2022/02/15 08:24:22;;;;;;;13.68;6.15;;;;;;;14.86;45.04;100955.03;5033650;28;20022;-63
2022/02/15 08:26:48;;;;;;;6.57;3.55;;;;;;;14.88;45.03;100964.69;5016223;28;20493;-63
2022/02/15 08:29:13;;;;;;;6.85;3.50;;;;;;;14.89;45.99;100965.53;5033737;28;20025;-63
2022/02/15 08:31:39;;;;;;;7.15;4.22;;;;;;;14.88;46.08;100971.94;5033788;28;20108;-62
2022/02/15 08:34:04;;;;;;;6.18;3.70;;;;;;;14.94;45.15;100968.59;5033597;28;20044;-62
2022/02/15 08:36:29;;;;;;;9.60;3.70;;;;;;;14.98;45.63;100965.47;5033589;28;20032;-62
2022/02/15 08:38:55;;;;;;;6.53;3.45;;;;;;;15.01;45.00;100967.00;5033606;28;20115;-63
2022/02/15 08:41:20;;;;;;;7.13;3.58;;;;;;;14.95;44.50;100948.75;5033648;28;20033;-63
2022/02/15 08:43:46;;;;;;;7.88;3.47;;;;;;;15.08;46.27;100963.53;5033375;28;20025;-63
2022/02/15 08:46:11;;;;;;;11.60;4.18;;;;;;;15.15;45.49;100961.06;5033479;28;20538;-63
2022/02/15 08:48:37;;;;;;;9.68;3.88;;;;;;;15.27;44.94;100969.78;5031679;28;20360;-63
2022/02/15 08:51:02;;;;;;;8.38;4.60;;;;;;;15.34;45.20;100976.22;5021400;28;20092;-63
2022/02/15 08:53:27;;;;;;;10.25;4.38;;;;;;;15.49;44.45;100975.56;4996086;28;20053;-64
2022/02/15 08:55:54;;;;;;;12.90;4.30;;;;;;;15.54;44.35;100984.03;4996129;28;20103;-65
2022/02/15 08:58:19;;;;;;;8.27;4.20;;;;;;;15.62;44.08;100984.09;5013406;28;20036;-65
2022/02/15 09:00:45;;;;;;;7.85;3.58;;;;;;;15.62;44.28;100981.38;5027176;28;20041;-63
2022/02/15 09:03:10;;;;;;;7.75;3.25;;;;;;;15.80;45.47;100983.19;5013621;28;20468;-63
2022/02/15 09:05:35;;;;;;;9.93;3.53;;;;;;;15.90;45.47;100992.88;5013802;28;20088;-63
2022/02/15 09:08:01;;;;;;;9.65;3.28;;;;;;;16.18;44.59;100996.25;5017223;28;20506;-63
2022/02/15 09:10:26;;;;;;;9.15;3.85;;;;;;;16.26;45.11;100990.88;5033561;28;20044;-62
2022/02/15 09:12:51;;;;;;;5.28;3.17;;;;;;;16.32;43.86;100998.34;5015870;28;20025;-63
2022/02/15 09:15:17;;;;;;;8.88;3.17;;;;;;;16.37;43.30;101004.09;5001431;28;20057;-63
2022/02/15 09:17:42;;;;;;;7.80;2.83;;;;;;;16.40;44.12;100998.38;5016869;28;20471;-63
2022/02/15 09:20:12;;;;;;;6.55;2.97;;;;;;;16.59;44.05;100990.03;5017491;28;20037;-63
2022/02/15 09:22:39;;;;;;;8.90;2.80;;;;;;;16.71;43.72;100996.84;5017737;28;20030;-63
2022/02/15 09:25:05;;;;;;;6.32;3.20;;;;;;;16.99;44.22;100996.56;5000245;28;20037;-63
2022/02/15 09:27:30;;;;;;;10.02;3.13;;;;;;;17.24;42.56;101003.69;5017886;28;20030;-63
2022/02/15 09:29:56;;;;;;;7.65;2.45;;;;;;;17.60;43.11;101013.22;5018044;28;20028;-63
2022/02/15 09:32:21;;;;;;;5.82;2.70;;;;;;;17.73;42.43;101002.69;5000507;28;20030;-63
2022/02/15 09:34:47;;;;;;;7.03;2.67;;;;;;;17.92;41.91;101010.47;5017639;28;20025;-62
2022/02/15 09:37:12;;;;;;;6.05;2.65;;;;;;;17.79;42.20;101002.03;5017554;28;20444;-62
2022/02/15 09:39:38;;;;;;;11.70;2.95;;;;;;;17.70;42.25;101004.94;5017534;28;20025;-63
2022/02/15 09:42:04;;;;;;;9.10;2.30;;;;;;;17.65;42.44;101015.41;5017439;28;20065;-63
2022/02/15 09:44:29;;;;;;;3.63;2.38;;;;;;;17.62;42.39;101011.19;5017402;28;20022;-63
2022/02/15 09:46:55;;;;;;;5.90;2.65;;;;;;;17.51;42.19;101016.91;5000413;28;20057;-63
2022/02/15 09:52:07;;;;;;;8.27;2.72;;;;;;;17.85;41.40;101023.03;5017375;28;20049;-63
2022/02/15 09:54:33;;;;;;;6.75;1.80;;;;;;;17.94;41.96;101018.44;5017798;28;20022;-63
2022/02/15 09:56:58;;;;;;;5.88;2.33;;;;;;;17.93;41.95;101020.28;4999632;28;20042;-63
2022/02/15 09:59:24;;;;;;;3.63;1.75;;;;;;;18.07;41.56;101017.88;5017318;28;20053;-63
2022/02/15 10:01:51;;;;;;;4.97;2.85;;;;;;;17.92;42.39;101026.72;5017425;28;20026;-63
2022/02/15 10:04:31;;;;;;;3.22;2.40;;;;;;;17.83;41.73;101016.09;5016780;28;20526;-66
2022/02/15 10:06:57;;;;;;;4.90;2.30;;;;;;;18.80;40.55;101022.06;4999659;28;20026;-66
2022/02/15 10:09:22;;;;;;;3.83;1.88;;;;;;;19.47;39.69;101019.63;5016460;28;20080;-66
2022/02/15 10:11:48;;;;;;;7.10;2.20;;;;;;;19.55;39.63;101024.97;5001457;28;20033;-66
2022/02/15 10:14:13;;;;;;;8.38;2.33;;;;;;;19.48;39.91;101015.88;5009110;28;20101;-66
2022/02/15 10:16:49;;;;;;;3.67;1.75;;;;;;;19.69;39.41;101018.75;5033703;28;20072;-66
2022/02/15 10:19:26;;;;;;;5.97;2.60;;;;;;;19.27;40.17;101018.38;5036269;28;20386;-66
2022/02/15 10:21:54;;;;;;;4.22;1.90;;;;;;;19.09;40.05;101026.81;5035962;28;20030;-66
2022/02/15 10:24:23;;;;;;;4.18;1.55;;;;;;;18.94;40.08;101026.75;5035806;28;20030;-65
2022/02/15 10:26:56;;;;;;;4.95;2.92;;;;;;;18.94;39.92;101040.31;5018894;28;20083;-65
2022/02/15 10:29:22;;;;;;;;;;;;;;;18.84;39.80;101047.84;5017954;28;20025;-66
2022/02/15 10:31:47;;;;;;;3.70;1.63;;;;;;;18.59;41.03;101051.69;5036226;28;19913;-66
2022/02/15 10:34:13;;;;;;;4.47;2.10;;;;;;;18.38;40.87;101051.38;5018189;28;20029;-65
2022/02/15 10:36:38;;;;;;;4.25;1.80;;;;;;;18.32;41.02;101054.78;5018239;28;20032;-66
2022/02/15 10:39:03;;;;;;;6.45;2.00;;;;;;;18.54;39.33;101049.47;5018237;28;20033;-66
2022/02/15 10:41:33;;;;;;;7.18;1.85;;;;;;;19.80;38.03;101056.38;5017989;28;20028;-65
2022/02/15 10:43:59;;;;;;;4.25;1.65;;;;;;;19.72;38.14;101045.56;5035604;28;20022;-66
2022/02/15 10:46:29;;;;;;;5.13;1.70;;;;;;;20.91;37.24;101043.56;5035483;28;20056;-66
2022/02/15 10:48:56;;;;;;;2.53;1.33;;;;;;;20.39;37.54;101043.72;5035622;28;20426;-66
2022/02/15 10:51:22;;;;;;;3.30;1.70;;;;;;;20.33;37.85;101039.88;5035549;28;20487;-66
2022/02/15 10:53:48;;;;;;;7.00;1.10;;;;;;;20.31;36.88;101031.06;5035530;28;20018;-66
2022/02/15 10:56:14;;;;;;;4.78;1.17;;;;;;;20.47;37.23;101023.72;5017670;28;20109;-66
2022/02/15 10:58:40;;;;;;;3.22;1.20;;;;;;;21.33;35.98;101023.75;5001656;28;20103;-66
2022/02/15 11:01:08;;;;;;;3.72;1.27;;;;;;;22.26;35.88;101018.06;5018090;28;20061;-65
2022/02/15 11:03:38;;;;;;;4.80;1.55;;;;;;;22.95;34.60;101013.38;5035076;28;20114;-66
2022/02/15 11:06:05;;;;;;;3.70;1.05;;;;;;;23.47;34.63;101007.22;5034880;28;20104;-65
2022/02/15 11:08:32;;;;;;;3.88;1.10;;;;;;;23.31;34.86;101013.88;5035012;28;20040;-65
2022/02/15 11:11:10;;;;;;;1.73;0.60;;;;;;;23.67;33.73;101008.91;5017175;28;20025;-65
2022/02/15 11:13:37;;;;;;;1.92;0.47;;;;;;;22.92;34.78;101003.69;5034805;28;20053;-66
2022/02/15 11:16:16;;;;;;;2.83;1.02;;;;;;;23.31;33.74;101010.34;5017055;28;20499;-66
2022/02/15 11:18:41;;;;;;;2.25;0.88;;;;;;;23.66;32.90;101012.72;5034650;28;20032;-66
2022/02/15 11:21:08;;;;;;;2.50;0.75;;;;;;;23.89;33.29;100995.03;5034571;28;20116;-66
2022/02/15 11:23:37;;;;;;;2.00;0.60;;;;;;;24.25;33.08;100979.84;5034596;28;20029;-66
2022/02/15 11:26:13;;;;;;;3.42;1.00;;;;;;;24.65;32.09;100975.03;5034451;28;20053;-66